Time;durP1;ratioP1;P1;durP2;ratioP2;P2;SDS_P1;SDS_P2;PMS_P1;PMS_P2;Temp;Humidity;BMP_temperature;BMP_pressure;BME280_temperature;BME280_humidity;BME280_pressure;Samples;Min_cycle;Max_cycle;Signal;HPM_P1;HPM_P2
2022/05/11 00:01:32;;;;;;;30.83;21.33;;;12.10;96.20;;;;;;4985293;28;20022;-86
2022/05/11 00:03:59;;;;;;;38.22;22.60;;;12.10;96.20;;;;;;4990734;28;20027;-86
2022/05/11 00:06:26;;;;;;;37.35;21.95;;;12.20;96.10;;;;;;4987965;28;20393;-86
2022/05/11 00:08:53;;;;;;;30.80;20.73;;;12.10;96.00;;;;;;4990790;28;20038;-86
2022/05/11 00:11:19;;;;;;;38.47;21.58;;;12.10;96.00;;;;;;4983128;28;20058;-86
2022/05/11 00:13:45;;;;;;;31.20;20.25;;;12.10;96.00;;;;;;4999268;28;20034;-86
2022/05/11 00:16:11;;;;;;;28.08;19.48;;;12.10;95.90;;;;;;4986789;28;20393;-86
2022/05/11 00:18:38;;;;;;;28.88;19.67;;;12.10;95.80;;;;;;4990421;28;20023;-86
2022/05/11 00:21:04;;;;;;;27.20;18.58;;;12.10;95.80;;;;;;4984407;28;20026;-87
2022/05/11 00:23:32;;;;;;;29.73;19.35;;;12.10;95.70;;;;;;4995775;28;20125;-87
2022/05/11 00:25:57;;;;;;;25.40;18.90;;;12.10;95.60;;;;;;5003158;28;20489;-87
2022/05/11 00:28:23;;;;;;;24.17;18.25;;;12.10;95.40;;;;;;5003234;28;20038;-87
2022/05/11 00:30:49;;;;;;;24.92;17.70;;;12.10;95.40;;;;;;4988798;28;20054;-86
2022/05/11 00:33:16;;;;;;;34.60;18.90;;;12.10;95.30;;;;;;4989291;28;20054;-86
2022/05/11 00:35:43;;;;;;;27.10;18.80;;;12.10;95.30;;;;;;4984823;28;20027;-87
2022/05/11 00:38:10;;;;;;;23.05;17.50;;;12.10;95.30;;;;;;4987200;28;20035;-87
2022/05/11 00:40:44;;;;;;;27.10;18.65;;;12.10;95.30;;;;;;4989516;28;20105;-87
2022/05/11 00:43:12;;;;;;;28.27;19.42;;;12.00;95.20;;;;;;4987921;28;20160;-87
2022/05/11 00:45:46;;;;;;;24.92;18.50;;;12.00;95.30;;;;;;4987136;28;20057;-87
2022/05/11 00:51:04;;;;;;;24.75;17.40;;;12.00;95.30;;;;;;4987092;28;20112;-87
2022/05/11 00:53:32;;;;;;;22.42;17.17;;;12.10;95.40;;;;;;5002177;28;20050;-87
2022/05/11 00:56:01;;;;;;;26.73;17.70;;;12.00;95.20;;;;;;5010139;28;20030;-87
2022/05/11 00:58:33;;;;;;;30.45;16.63;;;12.00;95.10;;;;;;4994241;28;20022;-87
2022/05/11 01:00:58;;;;;;;23.75;15.77;;;12.00;94.90;;;;;;4991709;28;20536;-87
2022/05/11 01:03:49;;;;;;;23.27;16.92;;;12.00;94.90;;;;;;4990642;28;20026;-87
2022/05/11 01:06:16;;;;;;;22.27;15.07;;;12.00;94.70;;;;;;5004916;28;20038;-87
2022/05/11 01:08:42;;;;;;;22.33;14.85;;;12.00;94.40;;;;;;5007432;28;20057;-87
2022/05/11 01:11:08;;;;;;;23.73;14.77;;;12.00;94.30;;;;;;4995900;28;20068;-87
2022/05/11 01:13:36;;;;;;;21.38;15.10;;;12.00;94.20;;;;;;4990946;28;20029;-87
2022/05/11 01:16:02;;;;;;;23.58;14.70;;;12.00;94.20;;;;;;4991496;28;20604;-87
2022/05/11 01:18:29;;;;;;;20.40;14.38;;;12.00;94.10;;;;;;5003293;28;20026;-86
2022/05/11 01:20:55;;;;;;;19.33;14.38;;;12.00;94.10;;;;;;4990684;28;20144;-86
2022/05/11 01:23:46;;;;;;;21.60;14.73;;;12.00;94.20;;;;;;4989137;28;20022;-87
2022/05/11 01:26:15;;;;;;;21.95;15.35;;;12.00;94.20;;;;;;5008614;28;20290;-87
2022/05/11 01:28:47;;;;;;;23.55;15.05;;;12.00;94.30;;;;;;5009270;28;20084;-87
2022/05/11 01:31:13;;;;;;;;;;;11.90;94.30;;;;;;5008661;28;20058;-87
2022/05/11 01:33:44;;;;;;;20.73;13.35;;;11.90;94.30;;;;;;5007285;28;20424;-87
2022/05/11 01:36:30;;;;;;;19.42;13.68;;;11.90;94.30;;;;;;5005361;28;20033;-86
2022/05/11 01:39:03;;;;;;;19.77;13.43;;;12.00;94.20;;;;;;4982565;28;20397;-87
2022/05/11 01:41:39;;;;;;;19.17;14.32;;;11.90;94.20;;;;;;4991791;28;20026;-87
2022/05/11 01:44:11;;;;;;;18.15;13.25;;;11.90;94.30;;;;;;5005919;28;20492;-86
2022/05/11 01:46:38;;;;;;;18.65;13.55;;;12.00;94.40;;;;;;5008194;28;20061;-87
2022/05/11 01:49:04;;;;;;;18.92;13.38;;;11.90;94.30;;;;;;4999437;28;20040;-87
2022/05/11 01:51:30;;;;;;;19.85;14.43;;;11.90;94.30;;;;;;4990482;28;20501;-86
2022/05/11 01:53:55;;;;;;;22.65;14.30;;;12.00;94.30;;;;;;4992069;28;20085;-86
2022/05/11 01:56:23;;;;;;;20.88;15.48;;;12.00;94.30;;;;;;4990658;28;20171;-87
2022/05/11 01:58:49;;;;;;;17.98;13.98;;;12.00;94.30;;;;;;4996086;28;20342;-87
2022/05/11 02:01:19;;;;;;;20.38;13.90;;;11.90;94.30;;;;;;5006528;28;20029;-87
2022/05/11 02:03:45;;;;;;;22.70;15.15;;;12.00;94.40;;;;;;5010189;28;20073;-87
2022/05/11 02:08:54;;;;;;;23.58;15.75;;;12.00;94.40;;;;;;5006320;28;20041;-86
2022/05/11 02:11:20;;;;;;;23.80;15.80;;;12.00;94.40;;;;;;5003484;28;20030;-86
2022/05/11 02:13:45;;;;;;;24.60;14.90;;;12.10;94.40;;;;;;4997326;28;20366;-86
2022/05/11 02:16:12;;;;;;;22.30;15.18;;;12.10;94.40;;;;;;5001394;28;20034;-86
2022/05/11 02:18:41;;;;;;;19.35;14.52;;;12.00;94.40;;;;;;5012024;28;20038;-86
2022/05/11 02:21:07;;;;;;;19.52;14.35;;;12.10;94.30;;;;;;5003390;28;20117;-86
2022/05/11 02:23:34;;;;;;;18.00;14.18;;;12.10;94.30;;;;;;4995438;28;20080;-86
2022/05/11 02:26:00;;;;;;;21.80;13.85;;;12.10;94.30;;;;;;4992918;28;20034;-87
2022/05/11 02:28:25;;;;;;;20.27;15.13;;;12.00;94.30;;;;;;4995414;28;20044;-86
2022/05/11 02:30:54;;;;;;;19.10;13.35;;;12.00;94.30;;;;;;4997655;28;20022;-86
2022/05/11 02:33:21;;;;;;;19.83;12.77;;;12.10;94.30;;;;;;4995891;28;20018;-86
2022/05/11 02:35:49;;;;;;;16.48;13.40;;;12.10;94.10;;;;;;5002065;28;20030;-86
2022/05/11 02:38:24;;;;;;;18.25;12.68;;;12.10;94.10;;;;;;4993178;28;20029;-86
2022/05/11 02:40:51;;;;;;;20.40;13.50;;;12.00;94.10;;;;;;5007085;28;20046;-86
2022/05/11 02:43:17;;;;;;;17.80;13.65;;;12.00;94.10;;;;;;5008542;28;20037;-86
2022/05/11 02:45:43;;;;;;;22.42;13.50;;;12.00;94.20;;;;;;5009201;28;20029;-86
2022/05/11 02:48:11;;;;;;;21.00;13.60;;;12.00;94.10;;;;;;5000047;28;20080;-86
2022/05/11 02:50:40;;;;;;;19.80;13.13;;;12.00;94.20;;;;;;4994249;28;20057;-85
2022/05/11 02:53:10;;;;;;;19.48;14.50;;;12.00;94.10;;;;;;4985261;28;20408;-86
2022/05/11 02:55:42;;;;;;;19.25;14.10;;;12.00;94.20;;;;;;4997745;28;20165;-86
2022/05/11 02:58:08;;;;;;;17.92;13.85;;;12.10;94.20;;;;;;4994195;28;20030;-86
2022/05/11 03:00:36;;;;;;;17.02;12.38;;;12.00;94.30;;;;;;4995340;28;20695;-85
2022/05/11 03:03:03;;;;;;;18.92;13.15;;;12.00;94.30;;;;;;5008608;28;20026;-86
2022/05/11 03:05:29;;;;;;;17.88;13.45;;;12.00;94.40;;;;;;4995107;28;20038;-86
2022/05/11 03:07:57;;;;;;;19.50;14.00;;;12.00;94.40;;;;;;5010378;28;20029;-86
2022/05/11 03:10:25;;;;;;;17.98;13.80;;;12.00;94.40;;;;;;4998001;28;20026;-86
2022/05/11 03:12:51;;;;;;;16.77;12.68;;;12.00;94.40;;;;;;4993303;28;20086;-86
2022/05/11 03:15:17;;;;;;;23.25;13.25;;;12.00;94.50;;;;;;5012360;28;20108;-86
2022/05/11 03:17:42;;;;;;;18.83;13.30;;;12.00;94.40;;;;;;4988612;28;20168;-86
2022/05/11 03:20:10;;;;;;;18.55;13.52;;;12.00;94.40;;;;;;4998398;28;20029;-86
2022/05/11 03:22:36;;;;;;;18.25;12.43;;;12.00;94.40;;;;;;5007348;28;20031;-86
2022/05/11 03:25:03;;;;;;;14.95;12.40;;;12.00;94.40;;;;;;4990034;28;20040;-86
2022/05/11 03:27:29;;;;;;;17.58;12.40;;;12.00;94.30;;;;;;4993764;28;20084;-86
2022/05/11 03:29:54;;;;;;;19.52;12.93;;;12.10;94.30;;;;;;4993175;28;20030;-86
2022/05/11 03:35:06;;;;;;;21.23;13.77;;;12.00;94.40;;;;;;4998302;28;20158;-86
2022/05/11 03:37:31;;;;;;;19.30;13.43;;;12.00;94.50;;;;;;5002565;28;20025;-86
2022/05/11 03:39:57;;;;;;;14.50;11.40;;;12.00;94.50;;;;;;5009073;28;20029;-86
2022/05/11 03:42:28;;;;;;;17.83;13.13;;;12.10;94.60;;;;;;4992546;28;20388;-86
2022/05/11 03:44:54;;;;;;;;;;;12.10;94.60;;;;;;5009261;28;20456;-86
2022/05/11 03:47:19;;;;;;;16.48;11.80;;;12.00;94.50;;;;;;4992250;28;19956;-86
2022/05/11 03:49:45;;;;;;;16.98;12.60;;;12.10;94.60;;;;;;5011543;28;20038;-86
2022/05/11 03:52:12;;;;;;;17.88;12.15;;;12.10;94.70;;;;;;4988960;28;20105;-86
2022/05/11 03:54:38;;;;;;;19.02;13.25;;;12.10;94.80;;;;;;4991793;28;20061;-85
2022/05/11 03:57:04;;;;;;;20.02;13.25;;;12.10;94.80;;;;;;4992065;28;20037;-85
2022/05/11 03:59:29;;;;;;;17.77;12.55;;;12.10;94.90;;;;;;4997169;28;20026;-86
2022/05/11 04:01:55;;;;;;;14.43;11.52;;;12.20;95.00;;;;;;4988848;28;20025;-85
2022/05/11 04:04:20;;;;;;;19.85;12.48;;;12.10;94.90;;;;;;5003229;28;20501;-86
2022/05/11 04:06:46;;;;;;;18.65;12.77;;;12.20;94.90;;;;;;5009117;28;20121;-86
2022/05/11 04:09:11;;;;;;;17.88;12.77;;;12.20;94.90;;;;;;5011597;28;20029;-85
2022/05/11 04:11:37;;;;;;;16.23;12.65;;;12.20;94.90;;;;;;4991770;28;20034;-85
2022/05/11 04:14:03;;;;;;;17.20;12.23;;;12.20;94.90;;;;;;5006823;28;20037;-85
2022/05/11 04:16:29;;;;;;;19.95;12.95;;;12.20;95.00;;;;;;4991184;28;20033;-85
2022/05/11 04:18:55;;;;;;;17.08;12.95;;;12.30;95.10;;;;;;4992358;28;20505;-86
2022/05/11 04:21:21;;;;;;;17.10;12.27;;;12.30;95.10;;;;;;5007458;28;20030;-86
2022/05/11 04:23:46;;;;;;;19.65;13.13;;;12.30;95.10;;;;;;4990387;28;20027;-86
2022/05/11 04:26:14;;;;;;;16.80;12.82;;;12.30;95.10;;;;;;5002679;28;20181;-86
2022/05/11 04:28:43;;;;;;;18.80;13.50;;;12.40;95.10;;;;;;5005588;28;20112;-86
2022/05/11 04:31:10;;;;;;;15.63;12.68;;;12.40;95.10;;;;;;4994454;28;20405;-86
2022/05/11 04:33:36;;;;;;;18.27;12.82;;;12.30;95.10;;;;;;4990960;28;20018;-87
2022/05/11 04:36:03;;;;;;;19.20;13.20;;;12.30;95.20;;;;;;4994109;28;20026;-87
2022/05/11 04:38:29;;;;;;;16.42;12.23;;;12.30;95.30;;;;;;4995183;28;20091;-87
2022/05/11 04:40:54;;;;;;;16.88;12.60;;;12.30;95.40;;;;;;5009526;28;20026;-87
2022/05/11 04:43:20;;;;;;;19.35;13.63;;;12.30;95.40;;;;;;4988823;28;20497;-87
2022/05/11 04:45:46;;;;;;;20.58;14.07;;;12.40;95.40;;;;;;5020311;28;20474;-86
2022/05/11 04:48:14;;;;;;;21.17;14.70;;;12.40;95.40;;;;;;5000193;28;20049;-86
2022/05/11 04:50:43;;;;;;;23.17;14.43;;;12.50;95.30;;;;;;4998586;28;20457;-86
2022/05/11 04:53:11;;;;;;;22.98;15.35;;;12.50;95.20;;;;;;4994969;28;20085;-86
2022/05/11 04:55:37;;;;;;;19.92;14.23;;;12.60;95.10;;;;;;4990658;28;20471;-86
2022/05/11 04:58:04;;;;;;;18.67;14.00;;;12.60;95.00;;;;;;4990379;28;20098;-86
2022/05/11 05:00:30;;;;;;;18.77;14.70;;;12.60;94.90;;;;;;4987176;28;20026;-86
2022/05/11 05:02:56;;;;;;;21.42;15.40;;;12.60;94.80;;;;;;4991416;28;20018;-85
2022/05/11 05:05:25;;;;;;;23.42;15.95;;;12.70;94.80;;;;;;4994137;28;20397;-85
2022/05/11 05:07:50;;;;;;;23.30;15.27;;;12.80;94.70;;;;;;4994380;28;20035;-85
2022/05/11 05:10:28;;;;;;;25.23;16.02;;;12.80;94.70;;;;;;4989269;28;20383;-86
2022/05/11 05:12:53;;;;;;;21.67;15.55;;;12.90;94.70;;;;;;4981708;28;20030;-86
2022/05/11 05:15:19;;;;;;;24.05;15.85;;;13.00;94.70;;;;;;4983378;28;20030;-85
2022/05/11 05:17:45;;;;;;;21.52;16.00;;;13.00;94.70;;;;;;4990243;28;20404;-86
2022/05/11 05:20:14;;;;;;;21.70;15.75;;;13.00;94.70;;;;;;4991354;28;20478;-85
2022/05/11 05:22:41;;;;;;;20.55;15.50;;;13.00;94.70;;;;;;4989469;28;20027;-86
2022/05/11 05:25:10;;;;;;;21.38;16.27;;;13.00;94.60;;;;;;4990496;28;20084;-85
2022/05/11 05:27:36;;;;;;;21.40;16.02;;;13.00;94.50;;;;;;4986587;28;20034;-85
2022/05/11 05:32:47;;;;;;;22.10;15.32;;;13.10;94.30;;;;;;4987162;28;20041;-84
2022/05/11 05:35:16;;;;;;;18.10;14.05;;;13.10;94.20;;;;;;4990233;28;20027;-85
2022/05/11 05:37:43;;;;;;;20.42;14.25;;;13.10;94.00;;;;;;4988858;28;20026;-85
2022/05/11 05:40:09;;;;;;;17.73;14.38;;;13.10;93.90;;;;;;4988615;28;20027;-85
2022/05/11 05:42:35;;;;;;;20.52;14.68;;;13.10;93.80;;;;;;4994270;28;20025;-85
2022/05/11 05:45:00;;;;;;;24.05;14.63;;;13.10;93.80;;;;;;4990100;28;20031;-85
2022/05/11 05:47:29;;;;;;;17.95;14.10;;;13.10;93.80;;;;;;4991004;28;20041;-85
2022/05/11 05:49:55;;;;;;;20.88;13.93;;;13.10;93.80;;;;;;4987842;28;20039;-85
2022/05/11 05:52:23;;;;;;;19.80;14.10;;;13.10;93.90;;;;;;4992769;28;20050;-85
2022/05/11 05:54:50;;;;;;;19.48;13.93;;;13.10;93.90;;;;;;4992508;28;20054;-85
2022/05/11 05:57:16;;;;;;;20.85;14.25;;;13.10;93.80;;;;;;4992688;28;20540;-85
2022/05/11 05:59:43;;;;;;;19.63;14.57;;;13.10;93.80;;;;;;4994791;28;20057;-85
2022/05/11 06:02:13;;;;;;;19.65;14.10;;;13.20;93.70;;;;;;4987545;28;20030;-85
2022/05/11 06:04:59;;;;;;;21.65;14.07;;;13.20;93.60;;;;;;4984710;28;20457;-85
2022/05/11 06:07:25;;;;;;;20.27;14.18;;;13.20;93.80;;;;;;5008499;28;20031;-85
2022/05/11 06:09:50;;;;;;;21.02;13.73;;;13.20;93.80;;;;;;4993069;28;20121;-85
2022/05/11 06:12:19;;;;;;;17.63;13.57;;;13.20;93.70;;;;;;4988701;28;20022;-86
2022/05/11 06:14:44;;;;;;;22.05;12.85;;;13.20;93.60;;;;;;4992430;28;20027;-85
2022/05/11 06:17:19;;;;;;;17.00;13.15;;;13.30;93.40;;;;;;4992456;28;20040;-85
2022/05/11 06:19:45;;;;;;;20.73;14.02;;;13.30;93.30;;;;;;4992999;28;20121;-85
2022/05/11 06:22:10;;;;;;;16.55;12.60;;;13.40;93.30;;;;;;4992446;28;20464;-85
2022/05/11 06:24:38;;;;;;;15.48;12.80;;;13.40;93.20;;;;;;4991312;28;20064;-84
2022/05/11 06:27:05;;;;;;;18.17;12.18;;;13.50;93.30;;;;;;4982842;28;20482;-84
2022/05/11 06:29:30;;;;;;;17.58;13.10;;;13.50;93.30;;;;;;4993675;28;20022;-85
2022/05/11 06:31:58;;;;;;;14.90;11.95;;;13.50;93.20;;;;;;4994125;28;20037;-85
2022/05/11 06:34:24;;;;;;;18.65;12.38;;;13.50;93.20;;;;;;4998800;28;20035;-85
2022/05/11 06:36:50;;;;;;;15.40;11.40;;;13.60;93.10;;;;;;4993083;28;20022;-85
2022/05/11 06:39:16;;;;;;;16.52;12.43;;;13.60;93.10;;;;;;4996195;28;20484;-85
2022/05/11 06:41:43;;;;;;;17.13;10.88;;;13.60;93.10;;;;;;4989167;28;20034;-85
2022/05/11 06:44:09;;;;;;;16.73;11.25;;;13.60;93.00;;;;;;5003473;28;20100;-85
2022/05/11 06:46:37;;;;;;;15.43;11.07;;;13.70;93.10;;;;;;4988656;28;20027;-84
2022/05/11 06:49:04;;;;;;;18.48;11.68;;;13.70;92.90;;;;;;4988423;28;20035;-85
2022/05/11 06:51:30;;;;;;;16.73;11.57;;;13.70;92.60;;;;;;4987787;28;20169;-84
2022/05/11 06:59:33;;;;;;;19.00;10.88;;;13.80;92.80;;;;;;4978978;28;20077;-84
2022/05/11 07:01:59;;;;;;;14.90;10.57;;;13.80;92.80;;;;;;4990468;28;20022;-84
2022/05/11 07:04:26;;;;;;;19.38;11.18;;;13.90;92.60;;;;;;4987363;28;20429;-84
2022/05/11 07:06:54;;;;;;;14.02;10.10;;;14.00;92.40;;;;;;4985252;28;20133;-85
2022/05/11 07:09:21;;;;;;;16.38;10.30;;;14.10;91.80;;;;;;5006425;28;20026;-85
2022/05/11 07:14:30;;;;;;;15.43;9.15;;;14.50;91.50;;;;;;4995035;28;20037;-82
2022/05/11 07:16:56;;;;;;;13.40;10.20;;;14.60;90.90;;;;;;4997213;28;20038;-82
2022/05/11 07:19:25;;;;;;;12.25;9.43;;;14.80;90.80;;;;;;4998125;28;20037;-82
2022/05/11 07:21:51;;;;;;;12.52;9.68;;;14.70;90.30;;;;;;4996775;28;20088;-82
2022/05/11 07:24:17;;;;;;;12.25;9.18;;;14.80;90.50;;;;;;5000452;28;20037;-82
2022/05/11 07:26:43;;;;;;;10.43;8.25;;;15.00;90.40;;;;;;4991793;28;20023;-82
2022/05/11 07:29:08;;;;;;;12.75;8.65;;;15.00;89.70;;;;;;5000702;28;20031;-82
2022/05/11 07:31:34;;;;;;;11.25;7.70;;;15.10;88.90;;;;;;4999934;28;20033;-83
2022/05/11 07:34:00;;;;;;;11.82;8.30;;;15.30;89.10;;;;;;5013286;28;20034;-82
2022/05/11 07:36:26;;;;;;;12.15;7.53;;;15.40;88.80;;;;;;4996829;28;20022;-82
2022/05/11 07:38:52;;;;;;;10.18;7.32;;;15.50;88.10;;;;;;4991901;28;20477;-83
2022/05/11 07:41:18;;;;;;;10.75;6.78;;;15.40;87.20;;;;;;4997449;28;20076;-83
2022/05/11 07:43:44;;;;;;;10.23;7.00;;;15.30;87.00;;;;;;4996477;28;20029;-83
2022/05/11 07:46:10;;;;;;;11.55;7.38;;;15.30;87.00;;;;;;4992852;28;20027;-82
2022/05/11 07:48:38;;;;;;;9.23;6.95;;;15.40;86.60;;;;;;4995739;28;20552;-84
2022/05/11 07:51:14;;;;;;;10.05;6.43;;;15.40;86.90;;;;;;4989421;28;20023;-83
2022/05/11 07:53:40;;;;;;;9.95;5.88;;;15.40;86.70;;;;;;4991357;28;20049;-84
2022/05/11 08:01:46;;;;;;;8.65;6.53;;;15.70;86.20;;;;;;4987772;28;20059;-83
2022/05/11 08:04:12;;;;;;;11.05;6.40;;;15.70;85.90;;;;;;4987976;28;20041;-84
2022/05/11 08:06:37;;;;;;;10.15;6.47;;;15.80;86.00;;;;;;4984971;28;20026;-85
2022/05/11 08:09:03;;;;;;;10.55;6.20;;;16.00;86.70;;;;;;4997483;28;20061;-85
2022/05/11 08:11:30;;;;;;;8.60;5.60;;;16.20;86.40;;;;;;4983599;28;20031;-85
2022/05/11 08:13:56;;;;;;;8.93;5.85;;;16.30;85.80;;;;;;4983573;28;20032;-85
2022/05/11 08:16:29;;;;;;;9.00;5.45;;;16.30;84.20;;;;;;4994622;28;20504;-86
2022/05/11 08:18:58;;;;;;;8.07;5.82;;;16.50;85.40;;;;;;4983646;28;20100;-85
2022/05/11 08:21:26;;;;;;;8.93;5.93;;;16.50;83.40;;;;;;4981810;28;20100;-85
2022/05/11 08:23:55;;;;;;;8.02;5.20;;;16.50;82.80;;;;;;4985800;28;20040;-85
2022/05/11 08:26:20;;;;;;;10.32;4.88;;;16.50;82.70;;;;;;4986442;28;20026;-84
2022/05/11 08:28:46;;;;;;;8.10;5.47;;;16.60;81.70;;;;;;4984155;28;20038;-85
2022/05/11 08:33:59;;;;;;;7.78;4.95;;;17.00;82.20;;;;;;4983788;28;20044;-85
2022/05/11 08:36:28;;;;;;;8.73;5.60;;;17.00;79.90;;;;;;4985890;28;20034;-84
2022/05/11 08:38:57;;;;;;;8.57;4.82;;;17.10;80.20;;;;;;4984054;28;20414;-84
2022/05/11 08:41:39;;;;;;;6.82;4.63;;;17.10;79.70;;;;;;4987442;28;20374;-84
2022/05/11 08:44:12;;;;;;;7.68;4.72;;;17.00;79.60;;;;;;4988589;28;20037;-83
2022/05/11 08:46:53;;;;;;;5.90;4.55;;;17.10;79.70;;;;;;4985184;28;20461;-84
2022/05/11 08:49:33;;;;;;;8.38;4.57;;;17.00;78.80;;;;;;4999505;28;20555;-84
2022/05/11 08:52:04;;;;;;;7.97;4.30;;;17.00;79.50;;;;;;4986807;28;20129;-84
2022/05/11 08:54:49;;;;;;;7.60;4.65;;;17.00;78.70;;;;;;4985125;28;20444;-84
2022/05/11 08:57:18;;;;;;;6.15;3.95;;;17.00;78.10;;;;;;5001787;28;20038;-84
2022/05/11 08:59:45;;;;;;;7.65;4.50;;;17.00;77.70;;;;;;4996418;28;20037;-84
2022/05/11 09:02:36;;;;;;;7.30;4.07;;;17.10;76.70;;;;;;5004893;28;20551;-83
2022/05/11 09:05:03;;;;;;;7.07;3.85;;;17.30;76.90;;;;;;4989619;28;20038;-83
2022/05/11 09:07:35;;;;;;;8.70;4.65;;;17.30;75.50;;;;;;4986258;28;20034;-82
2022/05/11 09:10:00;;;;;;;5.85;3.60;;;17.50;75.00;;;;;;4991157;28;20489;-82
2022/05/11 09:12:29;;;;;;;7.75;4.13;;;17.60;74.50;;;;;;4986950;28;20165;-83
2022/05/11 09:14:59;;;;;;;6.03;3.85;;;17.70;72.60;;;;;;4984838;28;20053;-82
2022/05/11 09:17:31;;;;;;;7.70;3.83;;;17.80;72.60;;;;;;4991723;28;20375;-83
2022/05/11 09:20:00;;;;;;;5.40;3.42;;;17.90;71.20;;;;;;4989920;28;20050;-82
2022/05/11 09:22:26;;;;;;;7.05;3.90;;;18.10;71.70;;;;;;5004865;28;20027;-82
2022/05/11 09:25:01;;;;;;;7.70;3.83;;;18.50;71.50;;;;;;4986678;28;20421;-82
2022/05/11 09:27:30;;;;;;;6.90;4.05;;;19.00;71.20;;;;;;4988987;28;20045;-82
2022/05/11 09:30:01;;;;;;;6.30;3.70;;;18.80;67.70;;;;;;4990490;28;20030;-83
2022/05/11 09:32:37;;;;;;;7.75;3.67;;;19.00;67.20;;;;;;4986695;28;20331;-83
2022/05/11 09:35:26;;;;;;;5.60;3.38;;;19.00;67.70;;;;;;4999344;28;20030;-83
2022/05/11 09:37:59;;;;;;;5.57;3.80;;;19.30;67.60;;;;;;4998892;28;20041;-83
2022/05/11 09:40:25;;;;;;;9.15;4.28;;;19.20;67.30;;;;;;4986710;28;20026;-83
2022/05/11 09:43:03;;;;;;;6.93;4.18;;;19.00;67.20;;;;;;4989400;28;20030;-83
2022/05/11 09:45:38;;;;;;;7.63;4.40;;;19.30;67.80;;;;;;4989751;28;20045;-83
2022/05/11 09:48:20;;;;;;;6.78;4.20;;;19.20;67.20;;;;;;5000800;28;20508;-83
2022/05/11 09:50:48;;;;;;;8.45;3.70;;;19.30;68.90;;;;;;4990276;28;20053;-83
2022/05/11 09:53:25;;;;;;;9.35;4.20;;;19.40;68.30;;;;;;5000844;28;20445;-83
2022/05/11 09:55:51;;;;;;;7.82;3.58;;;19.60;68.30;;;;;;4985597;28;20035;-85
2022/05/11 09:58:31;;;;;;;7.07;4.35;;;19.50;66.60;;;;;;5001835;28;20037;-83
2022/05/11 10:01:27;;;;;;;6.25;3.70;;;19.50;66.60;;;;;;4985248;28;20037;-83
2022/05/11 10:04:02;;;;;;;9.20;3.70;;;19.50;65.80;;;;;;4979594;28;20478;-83
2022/05/11 10:06:32;;;;;;;6.45;3.35;;;19.50;66.10;;;;;;4987054;28;20034;-83
2022/05/11 10:08:58;;;;;;;7.50;3.92;;;19.30;65.70;;;;;;4985205;28;20031;-83
2022/05/11 10:11:36;;;;;;;9.10;3.63;;;19.30;65.70;;;;;;4997330;28;20031;-83
2022/05/11 10:22:52;;;;;;;5.82;3.38;;;20.30;64.60;;;;;;4991246;28;20077;-83
2022/05/11 10:25:44;;;;;;;6.53;3.47;;;20.70;64.10;;;;;;4989353;28;20058;-84
2022/05/11 10:28:38;;;;;;;5.25;3.50;;;20.80;61.50;;;;;;4989810;28;20497;-84
2022/05/11 10:31:26;;;;;;;6.25;3.42;;;20.80;61.80;;;;;;5008328;28;20034;-84
2022/05/11 10:34:19;;;;;;;8.43;3.50;;;21.60;62.80;;;;;;5006516;28;20046;-84
2022/05/11 10:36:51;;;;;;;7.13;3.20;;;21.20;59.10;;;;;;4993392;28;20046;-84
2022/05/11 10:39:34;;;;;;;7.65;3.35;;;21.20;60.30;;;;;;4990855;28;20113;-84
2022/05/11 10:42:28;;;;;;;5.80;3.00;;;21.20;58.60;;;;;;5008986;28;20026;-84
2022/05/11 10:45:17;;;;;;;5.60;3.38;;;21.10;59.80;;;;;;4992090;28;20489;-84
2022/05/11 10:48:09;;;;;;;10.55;3.80;;;20.70;58.50;;;;;;4995647;28;20053;-84
2022/05/11 10:51:02;;;;;;;6.70;3.28;;;20.50;58.30;;;;;;4987398;28;20033;-83
2022/05/11 10:53:43;;;;;;;7.88;3.70;;;20.60;59.20;;;;;;4997354;28;20046;-84
2022/05/11 10:56:08;;;;;;;;;;;20.60;59.50;;;;;;4992698;28;20026;-84
2022/05/11 10:58:59;;;;;;;6.85;3.47;;;20.60;60.90;;;;;;4997972;28;20275;-83
2022/05/11 11:01:31;;;;;;;6.10;3.80;;;21.00;59.60;;;;;;4990498;28;20065;-84
2022/05/11 11:04:34;;;;;;;7.05;3.45;;;21.10;60.80;;;;;;4984134;28;20117;-84
2022/05/11 11:07:22;;;;;;;7.95;3.72;;;21.50;59.90;;;;;;5002020;28;20038;-84
2022/05/11 11:10:01;;;;;;;7.13;3.47;;;21.30;57.60;;;;;;4989110;28;20018;-83
2022/05/11 11:12:32;;;;;;;7.75;3.70;;;21.10;57.20;;;;;;4985285;28;20026;-83
2022/05/11 11:15:00;;;;;;;10.18;3.88;;;21.50;56.90;;;;;;5000805;28;20481;-83
2022/05/11 11:17:27;;;;;;;7.32;3.95;;;22.00;58.10;;;;;;4991462;28;20073;-84
2022/05/11 11:19:58;;;;;;;7.28;3.45;;;22.30;56.90;;;;;;4990267;28;20636;-84
2022/05/11 11:22:24;;;;;;;5.38;3.20;;;22.70;56.10;;;;;;4987567;28;20032;-84
2022/05/11 11:25:18;;;;;;;9.80;3.40;;;23.40;55.00;;;;;;5005703;28;20034;-84
2022/05/11 11:28:09;;;;;;;6.38;3.38;;;23.50;53.70;;;;;;4985349;28;20468;-84
2022/05/11 11:30:35;;;;;;;9.25;4.00;;;23.40;53.80;;;;;;4981106;28;20029;-84
2022/05/11 11:33:10;;;;;;;6.30;3.05;;;23.20;52.60;;;;;;4987070;28;20030;-84
2022/05/11 11:35:41;;;;;;;5.80;3.33;;;23.50;52.30;;;;;;4981821;28;20501;-85
2022/05/11 11:38:06;;;;;;;5.97;3.22;;;23.20;52.50;;;;;;4988014;28;20029;-83
2022/05/11 11:40:37;;;;;;;6.72;3.90;;;23.20;53.40;;;;;;4991561;28;20038;-83
2022/05/11 11:43:43;;;;;;;6.07;2.92;;;22.80;53.10;;;;;;4990472;28;20385;-83
2022/05/11 11:46:10;;;;;;;7.10;3.20;;;22.90;50.90;;;;;;4980790;28;20089;-84
2022/05/11 11:48:38;;;;;;;6.53;3.55;;;23.50;50.30;;;;;;4986507;28;20042;-84
2022/05/11 11:51:12;;;;;;;24.23;3.80;;;23.60;50.10;;;;;;4983266;28;20096;-82
2022/05/11 11:53:56;;;;;;;5.30;3.22;;;23.40;50.10;;;;;;4993951;28;20053;-83
2022/05/11 11:56:25;;;;;;;6.20;3.40;;;23.10;52.30;;;;;;4989755;28;20060;-83
2022/05/11 11:59:22;;;;;;;7.78;3.38;;;22.50;54.30;;;;;;5010000;28;20041;-82
2022/05/11 12:01:49;;;;;;;5.65;3.13;;;23.30;51.20;;;;;;4982576;28;20034;-83
2022/05/11 12:04:35;;;;;;;5.47;3.20;;;24.00;51.00;;;;;;4991004;28;20485;-82
2022/05/11 12:15:39;;;;;;;6.07;2.65;;;24.80;48.30;;;;;;5013009;28;20040;-82
2022/05/11 12:18:21;;;;;;;6.72;2.50;;;25.00;47.70;;;;;;4994275;28;20022;-82
2022/05/11 12:20:46;;;;;;;8.93;2.72;;;24.70;45.80;;;;;;5010819;28;20022;-83
2022/05/11 12:23:28;;;;;;;5.20;2.63;;;24.50;47.40;;;;;;4994414;28;20045;-82
2022/05/11 12:25:57;;;;;;;5.32;2.53;;;23.50;47.90;;;;;;5009480;28;20033;-82
2022/05/11 12:28:46;;;;;;;5.47;1.80;;;23.10;49.20;;;;;;5010440;28;20061;-82
2022/05/11 12:31:32;;;;;;;4.20;2.13;;;23.60;47.50;;;;;;5008417;28;20078;-81
2022/05/11 12:33:58;;;;;;;5.22;2.60;;;23.80;47.60;;;;;;4992872;28;20091;-82
2022/05/11 12:36:37;;;;;;;5.15;2.13;;;24.60;46.80;;;;;;5010138;28;20026;-82
2022/05/11 12:39:04;;;;;;;5.15;1.85;;;25.60;46.00;;;;;;5006574;28;20026;-82
2022/05/11 12:41:31;;;;;;;4.60;2.20;;;24.60;44.80;;;;;;5016570;28;20065;-82
2022/05/11 12:44:01;;;;;;;5.82;1.98;;;23.90;46.70;;;;;;5007537;28;20022;-82
2022/05/11 12:46:28;;;;;;;4.53;2.15;;;23.40;48.40;;;;;;5002669;28;20100;-81
2022/05/11 12:48:56;;;;;;;8.07;2.33;;;23.30;47.20;;;;;;5010807;28;20045;-82
2022/05/11 12:51:34;;;;;;;5.07;2.03;;;24.20;46.80;;;;;;5008769;28;20560;-82
2022/05/11 12:54:02;;;;;;;3.42;1.65;;;23.60;46.80;;;;;;5006350;28;20061;-82
2022/05/11 12:56:31;;;;;;;5.50;1.95;;;23.40;46.90;;;;;;5002308;28;20145;-82
2022/05/11 12:59:00;;;;;;;4.55;2.30;;;24.00;46.20;;;;;;4995087;28;20390;-82
2022/05/11 13:01:29;;;;;;;8.68;2.35;;;23.50;46.90;;;;;;4992286;28;20026;-82
2022/05/11 13:04:00;;;;;;;6.13;1.90;;;23.40;46.60;;;;;;5008718;28;20497;-81
2022/05/11 13:06:40;;;;;;;2.80;1.95;;;23.40;46.70;;;;;;5011241;28;20030;-82
2022/05/11 13:09:19;;;;;;;4.70;1.75;;;23.00;47.00;;;;;;4993714;28;20389;-82
2022/05/11 13:11:46;;;;;;;5.68;1.52;;;23.40;46.20;;;;;;5001764;28;20026;-82
2022/05/11 13:14:16;;;;;;;4.50;2.00;;;24.50;44.10;;;;;;5008121;28;20037;-82
2022/05/11 13:16:51;;;;;;;4.32;2.10;;;25.20;42.60;;;;;;5008548;28;20026;-82
2022/05/11 13:19:30;;;;;;;4.88;2.10;;;24.90;42.00;;;;;;4981941;28;20041;-82
2022/05/11 13:21:58;;;;;;;5.13;1.95;;;24.60;43.90;;;;;;4993764;28;20561;-82
2022/05/11 13:24:37;;;;;;;4.72;2.00;;;24.90;43.00;;;;;;5001103;28;20110;-82
2022/05/11 13:27:24;;;;;;;4.35;1.77;;;24.70;42.80;;;;;;4986763;28;20081;-82
2022/05/11 13:30:00;;;;;;;4.13;1.85;;;26.00;40.90;;;;;;4991933;28;20037;-82
2022/05/11 13:32:26;;;;;;;3.58;1.80;;;26.00;39.80;;;;;;5003402;28;20397;-82
2022/05/11 13:35:11;;;;;;;3.35;1.77;;;24.90;42.20;;;;;;5010070;28;20128;-82
2022/05/11 13:37:37;;;;;;;2.53;1.55;;;25.30;43.30;;;;;;5003191;28;20091;-82